Goshen, VA

8:30 AM EST on February 28, 2015 (GMT -0500)
Mountain Meadow Farm | Change Station
CLOSE
Current Station
Personal Weather Station
Location: Goshen, VA
Elevation: 1532 ft
Nearby Weather Stations
Active Advisory: Special Statement Active Notice: Record Report

Elev 1532 ft 38.05 °N, 79.48 °W | Updated 6 minutes ago

Clear
Clear
8.8 °F
Feels Like 9 °F
N
0.0
Wind Variable Wind from WNW
Gusts 3.0 mph

Today
High -- | Low -- °F
--% Chance of Precip.
Yesterday
High -- | Low -- °F
Precip. -- in
6:51 AM 6:10 PM
Waxing Gibbous, 77% visible
Pressure 30.48 in
Visibility 10.0 miles
Clouds Scattered Clouds 5000 ft
Windchill 9 °F
Dew Point 3 °F
Humidity 78%
Rainfall 0.00 in
Snow Depth Not available.
UV 1 out of 12
Pollen 1.90 out of 12
Air Quality Not available.
Flu Activity Not available.
METAR KHSP 281315Z AUTO 15006KT 10SM SCT050 M10/M17 A3048 RMK AO2 T11021170

More Conditions Fewer Conditions

Pressure 30.48 in
Visibility 10.0 miles
Clouds Scattered Clouds 5000 ft
Windchill 9 °F
Dew Point 3 °F
Humidity 78%
Rainfall 0.00 in
Snow Depth Not available.
UV 1 out of 12
Pollen 1.90 out of 12
Air Quality Not available.
Flu Activity Not available.
METAR KHSP 281315Z AUTO 15006KT 10SM SCT050 M10/M17 A3048 RMK AO2 T11021170

More Conditions Fewer Conditions

10-Day Weather Forecast

Almanac

Astronomy

Feb. 28, 2015 Rise Set
Actual Time
Civil Twilight
Nautical Twilight
Astronomical Twilight
Moon
Length of Visible Light
Length of Day
Tomorrow will be .
, % of the Moon is Illuminated

Today's Extremes

State Highs State Lows

Community

WunderPhotos

Upload Photos

1,801,010 photos uploaded!

WunderBlogs® & News

Nearby

Air Quality

  Air Quality AQ Index Pollutant
Not available.

Snow Depth

Station Depth Elevation

Earthquake Activity

City Distance Mag. Time & Date
Minimum magnitude displayed is 2.5.

Coastal Water Temperatures

Place Temperature

Nearby Weather Stations

Special Statement
Statement as of 3:53 AM EST on February 28, 2015


... Areas of black ice expected this morning...

Temperatures climbed into the upper 30s to the lower 40s Friday
afternoon. This produced snow melt and resulted in wet
surfaces... and pooling of water... which has refrozen into ice.
These patches of ice may cause travel difficulties. Be prepared
for slippery roads... sidewalks and parking lots. Please use extra
caution if you venture outdoors overnight or early Saturday. Any
surface that looks wet will likely be ice instead of water.